Time;durP1;ratioP1;P1;durP2;ratioP2;P2;SDS_P1;SDS_P2;PMS_P1;PMS_P2;Temp;Humidity;BMP_temperature;BMP_pressure;BME280_temperature;BME280_humidity;BME280_pressure;Samples;Min_cycle;Max_cycle;Signal;HPM_P1;HPM_P2
2021/10/19 00:01:03;;;;;;;29.80;15.13;;;;;;;12.58;65.81;100925.72;5087636;28;20043;-71
2021/10/19 00:03:30;;;;;;;24.58;16.63;;;;;;;12.49;66.30;100931.66;5087648;28;20048;-72
2021/10/19 00:05:57;;;;;;;25.10;16.15;;;;;;;12.45;66.52;100936.31;5087850;28;20052;-70
2021/10/19 00:08:24;;;;;;;21.73;14.50;;;;;;;12.51;66.26;100941.19;5087409;28;20044;-69
2021/10/19 00:10:52;;;;;;;18.08;13.07;;;;;;;12.49;66.35;100939.59;5086482;28;20136;-70
2021/10/19 00:13:18;;;;;;;21.83;14.85;;;;;;;12.47;66.66;100936.22;5087876;28;20048;-71
2021/10/19 00:15:47;;;;;;;21.73;15.05;;;;;;;12.44;66.76;100931.97;5087591;28;20500;-71
2021/10/19 00:18:14;;;;;;;21.73;14.20;;;;;;;12.38;66.93;100935.88;5086908;28;20048;-72
2021/10/19 00:20:41;;;;;;;24.23;18.38;;;;;;;12.30;67.43;100943.53;5088004;28;20055;-70
2021/10/19 00:23:08;;;;;;;23.35;15.40;;;;;;;12.31;67.33;100942.56;5088048;28;20154;-72
2021/10/19 00:25:35;;;;;;;23.15;15.95;;;;;;;12.38;67.19;100935.88;5087683;28;20048;-70
2021/10/19 00:28:02;;;;;;;23.27;17.33;;;;;;;12.34;67.44;100937.06;5088310;28;20052;-70
2021/10/19 00:30:28;;;;;;;27.08;16.95;;;;;;;12.38;67.18;100937.69;5087953;28;20048;-71
2021/10/19 00:32:57;;;;;;;25.55;17.52;;;;;;;12.32;67.79;100936.31;5087082;28;20040;-71
2021/10/19 00:35:25;;;;;;;26.35;19.38;;;;;;;12.33;67.84;100931.88;5087379;28;20047;-71
2021/10/19 00:37:52;;;;;;;30.83;21.27;;;;;;;12.23;68.23;100929.00;5087941;28;20040;-71
2021/10/19 00:40:19;;;;;;;25.92;17.08;;;;;;;12.33;67.79;100934.50;5085153;28;20052;-70
2021/10/19 00:42:46;;;;;;;27.90;20.05;;;;;;;12.27;67.98;100927.84;5087255;28;20044;-71
2021/10/19 00:45:13;;;;;;;24.65;16.10;;;;;;;12.34;67.64;100926.47;5088567;28;20054;-70
2021/10/19 00:47:47;;;;;;;28.58;17.70;;;;;;;12.38;67.46;100925.28;5087413;28;20115;-71
2021/10/19 00:50:15;;;;;;;27.00;19.60;;;;;;;12.38;67.57;100930.59;5086891;28;20105;-71
2021/10/19 00:52:43;;;;;;;27.13;17.55;;;;;;;12.41;67.33;100930.38;5087482;28;20048;-71
2021/10/19 00:55:10;;;;;;;29.77;20.33;;;;;;;12.33;67.74;100922.09;5087260;28;20052;-71
2021/10/19 00:57:38;;;;;;;27.92;21.55;;;;;;;12.40;67.59;100922.53;5086593;28;20488;-72
2021/10/19 01:00:06;;;;;;;31.33;18.58;;;;;;;12.31;67.85;100921.38;5086679;28;20069;-71
2021/10/19 01:02:34;;;;;;;28.23;18.10;;;;;;;12.32;67.90;100914.28;5086636;28;20044;-72
2021/10/19 01:05:02;;;;;;;27.50;19.73;;;;;;;12.40;67.54;100919.88;5088073;28;20127;-70
2021/10/19 01:07:31;;;;;;;28.13;17.40;;;;;;;12.41;67.69;100916.31;5086635;28;20052;-71
2021/10/19 01:09:58;;;;;;;30.52;22.65;;;;;;;12.28;68.30;100911.00;5066778;28;20048;-72
2021/10/19 01:12:25;;;;;;;30.90;20.13;;;;;;;12.32;67.94;100912.47;5087316;28;20526;-72
2021/10/19 01:14:51;;;;;;;26.33;17.60;;;;;;;12.38;67.66;100914.69;5086816;28;20056;-72
2021/10/19 01:17:18;;;;;;;26.05;18.15;;;;;;;12.40;67.70;100907.47;5086200;28;20073;-72
2021/10/19 01:19:49;;;;;;;39.38;21.98;;;;;;;12.40;67.66;100907.47;5087270;28;20048;-72
2021/10/19 01:22:16;;;;;;;29.38;23.45;;;;;;;12.32;68.00;100893.09;5086797;28;20048;-72
2021/10/19 01:24:44;;;;;;;29.15;21.02;;;;;;;12.28;68.36;100896.91;5086269;28;20040;-73
2021/10/19 01:27:12;;;;;;;27.85;20.52;;;;;;;12.27;68.15;100905.81;5087471;28;20101;-73
2021/10/19 01:29:39;;;;;;;28.63;20.02;;;;;;;12.26;68.40;100904.94;5089960;28;20056;-72
2021/10/19 01:32:07;;;;;;;30.05;17.77;;;;;;;12.35;67.99;100893.72;5086422;28;20044;-71
2021/10/19 01:34:34;;;;;;;28.10;19.35;;;;;;;12.41;67.69;100897.75;5087333;28;20055;-72
2021/10/19 01:37:03;;;;;;;29.23;17.52;;;;;;;12.43;67.71;100891.38;5086474;28;20544;-73
2021/10/19 01:39:30;;;;;;;23.13;17.30;;;;;;;12.48;67.49;100887.56;5084564;28;20048;-72
2021/10/19 01:41:57;;;;;;;22.70;17.42;;;;;;;12.46;67.76;100884.16;5086577;28;20044;-72
2021/10/19 01:44:24;;;;;;;27.13;18.27;;;;;;;12.47;67.67;100884.06;5086669;28;20052;-71
2021/10/19 01:46:51;;;;;;;26.83;17.20;;;;;;;12.47;67.61;100880.56;5093141;28;20143;-71
2021/10/19 01:49:17;;;;;;;30.23;18.35;;;;;;;12.48;67.51;100871.66;5086199;28;20051;-71
2021/10/19 01:51:44;;;;;;;27.38;18.17;;;;;;;12.45;67.73;100877.19;5087128;28;20071;-71
2021/10/19 01:54:13;;;;;;;29.85;19.88;;;;;;;12.41;67.86;100876.56;5089081;28;20102;-71
2021/10/19 01:56:39;;;;;;;27.63;17.92;;;;;;;12.39;67.97;100867.88;5094534;28;20048;-71
2021/10/19 01:59:06;;;;;;;25.65;16.60;;;;;;;12.42;67.80;100881.75;5086155;28;20051;-71
2021/10/19 02:01:37;;;;;;;24.67;16.58;;;;;;;12.46;67.69;100876.22;5086303;28;20075;-70
2021/10/19 02:04:04;;;;;;;28.02;15.90;;;;;;;12.51;67.49;100877.59;5085871;28;20055;-71
2021/10/19 02:06:31;;;;;;;26.05;16.73;;;;;;;12.52;67.39;100886.41;5085804;28;20586;-71
2021/10/19 02:08:58;;;;;;;26.20;15.77;;;;;;;12.58;67.15;100884.16;5086584;28;20040;-71
2021/10/19 02:11:26;;;;;;;26.20;16.23;;;;;;;12.68;67.00;100884.34;5084009;28;20052;-70
2021/10/19 02:13:53;;;;;;;26.52;16.23;;;;;;;12.70;66.92;100881.59;5085336;28;20039;-71
2021/10/19 02:16:20;;;;;;;24.90;16.55;;;;;;;12.68;66.89;100884.34;5086324;28;20154;-70
2021/10/19 02:18:47;;;;;;;32.20;20.10;;;;;;;12.66;66.95;100883.63;5085110;28;20040;-71
2021/10/19 02:21:14;;;;;;;24.75;16.60;;;;;;;12.70;66.85;100879.78;5085418;28;20051;-71
2021/10/19 02:23:41;;;;;;;25.77;17.20;;;;;;;12.77;66.61;100881.03;5087368;28;20044;-72
2021/10/19 02:26:09;;;;;;;29.70;15.77;;;;;;;12.85;66.26;100884.94;5087909;28;20059;-72
2021/10/19 02:28:37;;;;;;;28.55;16.85;;;;;;;12.89;66.23;100883.75;5090375;28;20040;-72
2021/10/19 02:31:06;;;;;;;25.80;18.88;;;;;;;12.92;66.13;100891.50;5086479;28;20080;-72
2021/10/19 02:33:33;;;;;;;35.03;19.95;;;;;;;12.94;65.89;100897.53;5085575;28;20054;-71
2021/10/19 02:36:00;;;;;;;26.13;17.27;;;;;;;13.01;65.65;100896.97;5086133;28;20063;-71
2021/10/19 02:38:27;;;;;;;30.02;20.02;;;;;;;13.04;65.67;100895.91;5086143;28;20051;-73
2021/10/19 02:40:54;;;;;;;32.13;18.48;;;;;;;13.08;65.54;100896.53;5085512;28;20047;-71
2021/10/19 02:43:20;;;;;;;28.98;18.35;;;;;;;13.09;65.57;100896.44;5085277;28;20036;-71
2021/10/19 02:45:53;;;;;;;28.50;20.45;;;;;;;13.16;65.26;100900.34;5093532;28;20044;-71
2021/10/19 02:48:20;;;;;;;26.65;17.25;;;;;;;13.19;65.16;100897.44;5073921;28;20717;-70
2021/10/19 02:50:47;;;;;;;26.75;18.10;;;;;;;13.22;64.93;100898.16;5085943;28;20047;-71
2021/10/19 02:53:13;;;;;;;25.55;17.70;;;;;;;13.25;64.86;100895.31;5088177;28;20048;-73
2021/10/19 02:55:41;;;;;;;24.40;16.88;;;;;;;13.27;64.86;100904.84;5091008;28;20514;-71
2021/10/19 02:58:08;;;;;;;28.73;17.75;;;;;;;13.27;64.66;100894.25;5085257;28;20040;-70
2021/10/19 03:00:35;;;;;;;26.05;17.63;;;;;;;13.25;64.81;100895.31;5085401;28;20048;-70
2021/10/19 03:03:03;;;;;;;23.95;15.90;;;;;;;13.24;64.69;100896.28;5085506;28;20435;-73
2021/10/19 03:05:30;;;;;;;24.65;16.65;;;;;;;13.18;64.73;100892.25;5085809;28;20040;-70
2021/10/19 03:07:57;;;;;;;25.65;17.02;;;;;;;13.11;64.76;100885.72;5085248;28;20044;-70
2021/10/19 03:10:24;;;;;;;30.23;17.88;;;;;;;13.03;65.09;100888.91;5082810;28;20071;-72
2021/10/19 03:12:51;;;;;;;27.13;17.55;;;;;;;12.97;64.94;100894.69;5085449;28;21182;-71
2021/10/19 03:15:20;;;;;;;28.58;17.25;;;;;;;12.96;65.06;100887.66;5084915;28;20059;-70
2021/10/19 03:17:47;;;;;;;26.05;19.20;;;;;;;12.99;64.94;100898.06;5085073;28;20052;-71
2021/10/19 03:20:15;;;;;;;28.33;18.38;;;;;;;13.04;64.76;100887.13;5088172;28;20048;-71
2021/10/19 03:22:42;;;;;;;26.17;17.60;;;;;;;13.03;64.56;100886.25;5087822;28;20080;-70
2021/10/19 03:25:09;;;;;;;30.38;20.15;;;;;;;13.05;64.65;100880.84;5087522;28;20048;-71
2021/10/19 03:27:36;;;;;;;28.95;17.45;;;;;;;13.04;64.48;100873.88;5089397;28;20058;-70
2021/10/19 03:30:04;;;;;;;27.15;19.48;;;;;;;12.99;64.69;100874.19;5088283;28;20078;-69
2021/10/19 03:32:31;;;;;;;31.80;20.45;;;;;;;12.94;64.56;100871.84;5088301;28;20040;-70
2021/10/19 03:34:58;;;;;;;27.77;19.85;;;;;;;12.92;64.63;100871.13;5089045;28;20044;-72
2021/10/19 03:37:28;;;;;;;26.60;17.95;;;;;;;12.91;64.66;100869.44;5091259;28;20052;-71
2021/10/19 03:39:55;;;;;;;28.33;18.52;;;;;;;12.90;64.70;100864.25;5086824;28;20495;-71
2021/10/19 03:42:22;;;;;;;31.88;18.75;;;;;;;12.89;64.61;100865.19;5088988;28;20148;-71
2021/10/19 03:44:49;;;;;;;28.08;18.33;;;;;;;12.91;64.58;100864.16;5088931;28;20059;-71
2021/10/19 03:47:16;;;;;;;28.35;17.63;;;;;;;12.91;64.50;100858.84;5088558;28;20052;-72
2021/10/19 03:49:43;;;;;;;27.75;18.35;;;;;;;12.91;64.27;100856.19;5087793;28;20044;-71
2021/10/19 03:52:10;;;;;;;28.70;18.27;;;;;;;12.91;64.41;100861.50;5088718;28;20044;-71
2021/10/19 03:54:38;;;;;;;29.30;17.75;;;;;;;12.94;64.29;100865.72;5087877;28;20084;-71
2021/10/19 03:57:07;;;;;;;28.20;18.42;;;;;;;12.93;64.23;100864.88;5089112;28;20044;-70
2021/10/19 03:59:34;;;;;;;31.70;19.95;;;;;;;12.88;64.21;100867.00;5096313;28;20059;-70
2021/10/19 04:02:01;;;;;;;29.50;20.10;;;;;;;12.79;64.40;100863.22;5070094;28;20052;-70
2021/10/19 04:04:29;;;;;;;33.83;21.30;;;;;;;12.75;64.64;100864.41;5087848;28;20048;-71
2021/10/19 04:06:55;;;;;;;35.90;20.65;;;;;;;12.75;64.52;100875.00;5087305;28;20051;-72
2021/10/19 04:09:22;;;;;;;31.00;21.00;;;;;;;12.81;64.44;100876.38;5086569;28;20100;-71
2021/10/19 04:11:51;;;;;;;34.55;19.70;;;;;;;12.86;64.38;100876.88;5088037;28;20407;-72
2021/10/19 04:14:17;;;;;;;30.65;21.30;;;;;;;12.89;64.33;100875.81;5087546;28;20055;-70
2021/10/19 04:16:44;;;;;;;30.90;20.75;;;;;;;12.89;64.21;100879.31;5087610;28;20042;-69
2021/10/19 04:19:11;;;;;;;31.55;20.75;;;;;;;12.87;64.18;100894.47;5087077;28;20170;-71
2021/10/19 04:21:41;;;;;;;38.58;23.33;;;;;;;12.86;64.15;100889.31;5088372;28;20070;-70
2021/10/19 04:24:08;;;;;;;35.85;22.60;;;;;;;12.84;64.30;100899.16;5088298;28;20631;-71
2021/10/19 04:26:35;;;;;;;49.63;26.55;;;;;;;12.86;64.23;100898.09;5088395;28;20655;-71
2021/10/19 04:29:03;;;;;;;36.42;23.55;;;;;;;12.88;64.29;100896.19;5086814;28;20059;-71
2021/10/19 04:31:31;;;;;;;36.88;24.80;;;;;;;12.90;64.07;100899.56;5088313;28;20052;-71
2021/10/19 04:33:59;;;;;;;37.42;24.48;;;;;;;12.89;64.13;100903.19;5089416;28;20055;-70
2021/10/19 04:36:27;;;;;;;40.15;25.27;;;;;;;12.88;64.16;100905.94;5088190;28;20109;-71
2021/10/19 04:38:53;;;;;;;40.60;26.10;;;;;;;12.88;64.28;100903.28;5087057;28;20044;-73
2021/10/19 04:41:21;;;;;;;42.60;24.48;;;;;;;12.89;64.09;100912.94;5071268;28;20404;-70
2021/10/19 04:43:47;;;;;;;35.85;25.75;;;;;;;12.87;64.08;100910.38;5076932;28;20503;-70
2021/10/19 04:46:16;;;;;;;38.22;23.70;;;;;;;12.88;64.10;100908.59;5081579;28;20498;-70
2021/10/19 04:48:43;;;;;;;37.72;26.15;;;;;;;12.88;64.14;100909.44;5087777;28;20040;-71
2021/10/19 04:51:11;;;;;;;36.55;23.88;;;;;;;12.86;64.05;100910.50;5088896;28;20044;-74
2021/10/19 04:53:38;;;;;;;38.05;24.63;;;;;;;12.86;64.08;100913.16;5088761;28;20056;-71
2021/10/19 04:56:06;;;;;;;34.80;22.20;;;;;;;12.86;64.10;100913.16;5087594;28;20381;-71
2021/10/19 04:58:33;;;;;;;32.80;23.63;;;;;;;12.85;64.03;100909.66;5090210;28;20498;-72
2021/10/19 05:01:00;;;;;;;39.35;25.05;;;;;;;12.86;64.00;100908.69;5086599;28;20044;-70
2021/10/19 05:03:28;;;;;;;37.38;27.85;;;;;;;12.85;63.97;100909.66;5075124;28;20055;-73
2021/10/19 05:05:55;;;;;;;35.15;23.27;;;;;;;12.83;64.07;100906.25;5076751;28;20054;-69
2021/10/19 05:08:22;;;;;;;39.80;23.40;;;;;;;12.81;64.06;100906.38;5074002;28;20044;-72
2021/10/19 05:10:49;;;;;;;38.92;23.67;;;;;;;12.84;63.90;100899.16;5074077;28;20079;-74
2021/10/19 05:13:16;;;;;;;40.30;23.23;;;;;;;12.84;63.97;100905.31;5063024;28;20040;-77
2021/10/19 05:15:44;;;;;;;36.42;24.58;;;;;;;12.78;63.95;100900.44;5075585;28;20141;-75
2021/10/19 05:18:11;;;;;;;31.10;22.15;;;;;;;12.74;64.13;100904.28;5071196;28;20044;-75
2021/10/19 05:20:39;;;;;;;35.25;23.25;;;;;;;12.65;64.34;100910.22;5066249;28;20408;-76
2021/10/19 05:23:06;;;;;;;35.35;23.40;;;;;;;12.56;64.33;100899.31;5067934;28;20492;-74
2021/10/19 05:25:33;;;;;;;34.20;23.27;;;;;;;12.50;64.64;100889.16;5067074;28;20201;-71
2021/10/19 05:28:00;;;;;;;37.03;24.58;;;;;;;12.43;64.52;100886.09;5067398;28;20044;-73
2021/10/19 05:30:27;;;;;;;37.53;24.25;;;;;;;12.41;64.66;100893.28;5065768;28;20068;-73
2021/10/19 05:32:54;;;;;;;36.60;23.33;;;;;;;12.38;64.69;100888.19;5066989;28;20076;-71
2021/10/19 05:35:21;;;;;;;36.40;22.92;;;;;;;12.40;64.65;100904.84;5067153;28;20064;-77
2021/10/19 05:37:49;;;;;;;39.28;22.88;;;;;;;12.39;64.57;100910.25;5077338;28;20048;-70
2021/10/19 05:40:16;;;;;;;33.33;22.27;;;;;;;12.38;64.60;100906.75;5064567;28;20048;-72
2021/10/19 05:42:43;;;;;;;36.25;22.70;;;;;;;12.36;64.61;100908.66;5058652;28;20044;-72
2021/10/19 05:45:10;;;;;;;35.20;22.40;;;;;;;12.32;64.53;100909.00;5085671;28;20055;-72
2021/10/19 05:47:37;;;;;;;33.75;21.90;;;;;;;12.25;64.86;100905.91;5086233;28;20150;-72
2021/10/19 05:50:04;;;;;;;36.03;21.60;;;;;;;12.19;64.88;100915.13;5085726;28;20498;-73
2021/10/19 05:52:31;;;;;;;34.60;21.67;;;;;;;12.13;64.94;100920.00;5085017;28;20043;-71
2021/10/19 05:54:59;;;;;;;34.92;22.23;;;;;;;12.08;65.03;100917.66;5085694;28;20040;-73
2021/10/19 05:57:26;;;;;;;33.50;21.45;;;;;;;12.03;65.20;100912.69;5084284;28;20040;-73
2021/10/19 05:59:53;;;;;;;41.70;22.63;;;;;;;12.04;65.03;100922.31;5083205;28;20055;-72
2021/10/19 06:02:20;;;;;;;36.88;21.55;;;;;;;12.09;65.05;100913.22;5083975;28;20044;-72
2021/10/19 06:04:47;;;;;;;35.55;23.35;;;;;;;12.17;64.82;100905.59;5085799;28;20050;-72
2021/10/19 06:07:14;;;;;;;37.70;23.63;;;;;;;12.30;64.68;100905.56;5084129;28;20052;-78
2021/10/19 06:09:41;;;;;;;34.63;24.02;;;;;;;12.44;64.41;100905.47;5063188;28;20270;-73
2021/10/19 06:12:09;;;;;;;35.75;22.88;;;;;;;12.53;64.21;100907.50;5077726;28;20067;-78
2021/10/19 06:14:36;;;;;;;33.83;24.58;;;;;;;12.65;64.01;100911.06;5067451;28;20052;-73
2021/10/19 06:17:03;;;;;;;37.75;24.42;;;;;;;12.74;63.70;100905.09;5064462;28;20052;-73
2021/10/19 06:19:30;;;;;;;32.97;22.30;;;;;;;12.86;63.51;100915.81;5065286;28;20063;-73
2021/10/19 06:21:56;;;;;;;31.30;22.15;;;;;;;12.99;63.11;100913.97;5028332;28;20075;-72
2021/10/19 06:24:23;;;;;;;32.70;20.45;;;;;;;13.08;63.10;100917.75;5064853;28;20639;-75
2021/10/19 06:26:50;;;;;;;33.28;20.73;;;;;;;13.23;62.73;100918.44;5047029;28;20257;-77
2021/10/19 06:29:19;;;;;;;32.47;21.55;;;;;;;13.38;62.45;100914.72;5063355;28;20431;-69
2021/10/19 06:31:45;;;;;;;32.08;22.33;;;;;;;13.51;62.14;100907.53;5063803;28;20052;-70
2021/10/19 06:34:12;;;;;;;31.95;22.13;;;;;;;13.67;61.89;100909.03;5064810;28;20054;-71
2021/10/19 06:36:39;;;;;;;28.33;19.70;;;;;;;13.78;61.53;100898.44;5063234;28;20045;-72
2021/10/19 06:39:07;;;;;;;30.75;20.27;;;;;;;13.89;61.15;100898.47;5063660;28;20055;-70
2021/10/19 06:41:34;;;;;;;31.48;20.38;;;;;;;14.00;60.94;100907.44;5061510;28;20064;-69
2021/10/19 06:44:01;;;;;;;26.27;18.73;;;;;;;14.01;60.99;100902.03;5063935;28;20060;-73
2021/10/19 06:46:30;;;;;;;30.83;19.85;;;;;;;14.01;60.98;100904.66;5064973;28;20103;-74
2021/10/19 06:48:58;;;;;;;32.22;21.77;;;;;;;14.05;60.87;100899.97;5065686;28;20902;-72
2021/10/19 06:51:25;;;;;;;28.80;18.92;;;;;;;14.05;60.72;100892.84;5043336;28;20049;-73
2021/10/19 06:53:52;;;;;;;29.83;20.85;;;;;;;14.07;60.86;100900.69;5044315;28;20103;-72
2021/10/19 06:56:18;;;;;;;28.08;19.25;;;;;;;14.14;60.59;100907.22;5047115;28;20053;-74
2021/10/19 06:58:45;;;;;;;23.98;19.40;;;;;;;14.21;60.56;100905.78;5046125;28;20157;-70
2021/10/19 07:01:12;;;;;;;25.63;19.65;;;;;;;14.38;60.11;100911.59;5050260;28;20060;-73
2021/10/19 07:03:40;;;;;;;29.23;19.83;;;;;;;14.52;59.85;100911.38;5055915;28;20610;-69
2021/10/19 07:06:07;;;;;;;28.63;18.30;;;;;;;14.65;59.54;100913.94;5049627;28;20045;-71
2021/10/19 07:08:34;;;;;;;27.33;18.27;;;;;;;14.74;59.23;100915.03;5049264;28;20052;-70
2021/10/19 07:11:02;;;;;;;28.00;17.23;;;;;;;14.77;59.31;100923.59;5063432;28;20044;-71
2021/10/19 07:13:29;;;;;;;29.45;18.38;;;;;;;14.78;58.96;100916.47;5066935;28;20055;-72
2021/10/19 07:15:57;;;;;;;27.58;16.13;;;;;;;14.75;58.92;100916.69;5066652;28;20044;-73
2021/10/19 07:18:25;;;;;;;27.83;19.90;;;;;;;14.61;59.20;100912.50;5074314;28;20044;-71
2021/10/19 07:20:55;;;;;;;29.35;18.90;;;;;;;14.56;59.29;100910.16;5070791;28;20044;-72
2021/10/19 07:23:22;;;;;;;27.23;18.83;;;;;;;14.66;59.04;100913.81;5070472;28;20113;-74
2021/10/19 07:25:49;;;;;;;26.15;18.33;;;;;;;14.67;58.71;100918.16;5073184;28;20122;-73
2021/10/19 07:28:16;;;;;;;26.80;19.10;;;;;;;14.79;58.52;100915.50;5069694;28;20488;-70
2021/10/19 07:30:45;;;;;;;28.80;18.38;;;;;;;14.84;58.39;100908.84;5061754;28;20071;-70
2021/10/19 07:33:12;;;;;;;40.30;18.20;;;;;;;14.87;58.12;100913.94;5069056;28;20669;-71
2021/10/19 07:35:39;;;;;;;26.58;17.90;;;;;;;14.96;58.06;100917.63;5066488;28;20045;-69
2021/10/19 07:38:07;;;;;;;30.80;19.75;;;;;;;14.90;57.99;100907.50;5067059;28;20493;-69
2021/10/19 07:40:34;;;;;;;23.40;16.38;;;;;;;14.79;58.25;100912.84;5066277;28;20047;-69
2021/10/19 07:43:01;;;;;;;24.92;17.88;;;;;;;14.69;58.38;100910.91;5068312;28;20052;-70
2021/10/19 07:45:29;;;;;;;25.13;17.70;;;;;;;14.64;58.36;100910.44;5067323;28;20135;-68
2021/10/19 07:47:59;;;;;;;23.90;17.63;;;;;;;14.65;58.48;100906.78;5068670;28;20056;-69
2021/10/19 07:50:29;;;;;;;24.60;16.45;;;;;;;14.64;58.48;100901.59;5072014;28;20631;-69
2021/10/19 07:52:56;;;;;;;24.98;18.25;;;;;;;14.60;58.44;100897.50;5071057;28;20040;-72
2021/10/19 07:55:27;;;;;;;24.30;18.38;;;;;;;14.48;58.61;100891.31;5058311;28;20048;-70
2021/10/19 07:57:55;;;;;;;25.33;17.48;;;;;;;14.56;58.41;100894.19;5078009;28;20078;-70
2021/10/19 08:00:24;;;;;;;24.23;16.38;;;;;;;14.69;58.25;100897.63;5070605;28;20052;-71
2021/10/19 08:02:52;;;;;;;25.83;17.02;;;;;;;14.96;57.74;100899.00;5075206;28;20074;-69
2021/10/19 08:05:19;;;;;;;25.33;16.90;;;;;;;15.16;57.22;100905.41;5072413;28;20047;-67
2021/10/19 08:07:49;;;;;;;29.33;17.58;;;;;;;15.38;56.74;100906.31;5074278;28;20132;-68
2021/10/19 08:10:18;;;;;;;24.98;15.35;;;;;;;15.59;56.27;100909.00;5066541;28;20048;-69
2021/10/19 08:12:47;;;;;;;24.55;15.82;;;;;;;15.65;55.81;100911.16;5074063;28;20055;-67
2021/10/19 08:15:14;;;;;;;25.35;16.38;;;;;;;15.60;55.94;100916.03;5027728;28;20044;-70
2021/10/19 08:17:42;;;;;;;29.02;17.73;;;;;;;15.60;55.77;100911.53;5073006;28;20048;-67
2021/10/19 08:20:10;;;;;;;23.88;16.15;;;;;;;15.70;55.69;100903.63;5069356;28;20040;-69
2021/10/19 08:22:38;;;;;;;22.85;15.98;;;;;;;15.82;55.51;100894.63;5072852;28;20513;-68
2021/10/19 08:25:07;;;;;;;26.92;16.20;;;;;;;15.89;55.12;100891.47;5070569;28;20052;-67
2021/10/19 08:27:34;;;;;;;26.80;17.60;;;;;;;15.92;54.99;100889.38;5071529;28;20068;-69
2021/10/19 08:30:05;;;;;;;27.88;15.57;;;;;;;16.01;54.78;100890.41;5070848;28;20047;-70
2021/10/19 08:32:32;;;;;;;22.35;15.25;;;;;;;16.15;54.54;100898.06;5072708;28;20120;-69
2021/10/19 08:34:59;;;;;;;24.58;15.35;;;;;;;16.22;54.62;100899.25;5072357;28;20036;-68
2021/10/19 08:37:26;;;;;;;18.98;14.85;;;;;;;16.19;54.52;100896.81;5079393;28;20058;-74
2021/10/19 08:39:53;;;;;;;24.40;15.73;;;;;;;16.18;54.57;100896.94;5077950;28;20044;-70
2021/10/19 08:42:20;;;;;;;26.00;15.23;;;;;;;16.28;54.43;100905.00;5083170;28;20055;-69
2021/10/19 08:44:47;;;;;;;19.83;14.18;;;;;;;16.43;54.13;100904.50;5083861;28;20056;-73
2021/10/19 08:47:15;;;;;;;21.30;14.57;;;;;;;16.69;53.31;100897.88;5075680;28;20044;-70
2021/10/19 08:49:43;;;;;;;19.25;14.23;;;;;;;16.85;53.25;100894.72;5074057;28;20040;-69
2021/10/19 08:52:10;;;;;;;20.10;14.98;;;;;;;16.94;52.93;100894.78;5074109;28;20048;-72
2021/10/19 08:54:37;;;;;;;26.90;16.35;;;;;;;17.09;52.77;100897.88;5074630;28;20051;-73
2021/10/19 08:57:04;;;;;;;25.85;16.02;;;;;;;17.38;52.09;100887.22;5070219;28;20043;-69
2021/10/19 08:59:31;;;;;;;23.95;15.15;;;;;;;17.69;51.50;100891.59;5073715;28;20050;-71
2021/10/19 09:01:59;;;;;;;24.70;14.20;;;;;;;17.82;51.26;100892.13;5072380;28;20047;-70
2021/10/19 09:04:30;;;;;;;23.23;13.50;;;;;;;17.99;50.91;100887.94;5070686;28;20048;-70
2021/10/19 09:06:58;;;;;;;19.67;13.88;;;;;;;18.25;50.11;100890.78;5069921;28;20043;-70
2021/10/19 09:09:27;;;;;;;21.27;14.18;;;;;;;18.44;49.83;100876.53;5072648;28;20121;-71
2021/10/19 09:11:57;;;;;;;21.95;13.40;;;;;;;18.69;49.27;100876.81;5072381;28;20510;-72
2021/10/19 09:14:31;;;;;;;21.67;13.38;;;;;;;18.94;48.79;100891.34;5071466;28;20040;-70
2021/10/19 09:17:01;;;;;;;21.92;15.45;;;;;;;19.09;48.09;100886.34;5049703;28;20044;-71
2021/10/19 09:19:30;;;;;;;18.15;13.05;;;;;;;19.34;47.58;100884.75;5073039;28;20060;-71
2021/10/19 09:22:03;;;;;;;22.48;14.48;;;;;;;19.75;46.70;100889.63;5049998;28;20048;-68
2021/10/19 09:24:31;;;;;;;18.63;13.05;;;;;;;20.17;45.83;100875.53;5047044;28;20041;-69
2021/10/19 09:27:01;;;;;;;18.35;13.85;;;;;;;20.62;44.87;100871.75;5046585;28;20044;-71
2021/10/19 09:29:31;;;;;;;19.58;13.48;;;;;;;20.86;44.13;100868.31;5045480;28;20123;-70
2021/10/19 09:31:59;;;;;;;19.45;11.48;;;;;;;20.96;43.87;100852.91;5062792;28;20125;-70
2021/10/19 09:34:29;;;;;;;17.10;12.10;;;;;;;21.05;43.17;100855.59;5063711;28;20567;-70
2021/10/19 09:36:58;;;;;;;17.88;12.65;;;;;;;21.22;43.29;100851.94;5062888;28;20101;-69
2021/10/19 09:39:32;;;;;;;22.83;13.65;;;;;;;21.29;43.17;100846.72;5062782;28;20074;-70
2021/10/19 09:42:00;;;;;;;21.83;12.30;;;;;;;21.37;42.26;100844.03;5063252;28;20048;-70
2021/10/19 09:44:27;;;;;;;16.40;11.50;;;;;;;21.18;42.50;100846.03;5068135;28;20084;-71
2021/10/19 09:46:55;;;;;;;19.13;12.35;;;;;;;21.04;42.84;100843.19;5062984;28;20044;-71
2021/10/19 09:49:23;;;;;;;15.45;11.43;;;;;;;20.83;43.33;100840.94;5062925;28;20055;-69
2021/10/19 09:51:50;;;;;;;15.02;11.75;;;;;;;20.88;42.79;100836.75;5063481;28;20626;-70
2021/10/19 09:54:22;;;;;;;15.65;12.20;;;;;;;20.85;42.94;100837.09;5062995;28;20049;-70
2021/10/19 09:56:49;;;;;;;16.80;11.05;;;;;;;20.80;42.33;100834.06;5062110;28;20049;-70
2021/10/19 09:59:17;;;;;;;12.93;9.60;;;;;;;20.43;42.37;100841.44;5063367;28;20113;-70
2021/10/19 10:01:45;;;;;;;16.23;12.07;;;;;;;20.31;43.03;100840.06;5063904;28;20056;-71
2021/10/19 10:04:12;;;;;;;16.80;10.57;;;;;;;20.35;43.21;100849.47;5060890;28;20453;-70
2021/10/19 10:06:42;;;;;;;16.10;11.32;;;;;;;20.39;42.89;100855.34;5061980;28;20636;-70
2021/10/19 10:09:09;;;;;;;18.25;11.50;;;;;;;20.23;42.95;100848.91;5063457;28;20044;-71
2021/10/19 10:11:41;;;;;;;15.10;9.38;;;;;;;20.09;42.87;100844.13;5061307;28;20620;-73
2021/10/19 10:14:09;;;;;;;13.77;10.45;;;;;;;20.08;42.90;100845.16;5062177;28;20079;-70
2021/10/19 10:16:47;;;;;;;15.00;9.40;;;;;;;20.02;43.32;100851.13;5061887;28;20130;-70
2021/10/19 10:19:19;;;;;;;14.48;9.95;;;;;;;19.96;43.06;100836.50;5061531;28;20058;-72
2021/10/19 10:21:49;;;;;;;13.65;9.77;;;;;;;19.98;43.25;100833.69;5042473;28;20496;-71
2021/10/19 10:24:27;;;;;;;14.80;10.80;;;;;;;19.94;43.27;100819.75;5044734;28;20045;-70
2021/10/19 10:27:08;;;;;;;17.60;11.52;;;;;;;19.70;43.71;100817.72;5042139;28;20455;-71
2021/10/19 10:29:42;;;;;;;14.23;10.05;;;;;;;19.83;43.51;100807.44;5028120;28;20138;-71
2021/10/19 10:32:21;;;;;;;14.23;9.52;;;;;;;20.04;43.14;100804.41;5063974;28;20049;-74
2021/10/19 10:34:48;;;;;;;14.90;9.18;;;;;;;19.96;43.26;100803.50;5067107;28;20049;-71
2021/10/19 10:37:15;;;;;;;16.30;9.75;;;;;;;19.86;42.96;100801.78;5067321;28;20052;-71
2021/10/19 10:39:45;;;;;;;15.50;9.48;;;;;;;19.84;43.08;100792.19;5071887;28;20047;-71
2021/10/19 10:42:15;;;;;;;14.52;10.77;;;;;;;19.94;42.96;100795.63;5086760;28;20131;-71
2021/10/19 10:44:43;;;;;;;14.88;10.02;;;;;;;20.07;42.66;100794.34;5086646;28;20066;-70
2021/10/19 10:47:11;;;;;;;13.20;9.60;;;;;;;20.04;42.75;100785.63;5089813;28;20543;-71
2021/10/19 10:49:38;;;;;;;14.00;8.90;;;;;;;19.88;42.93;100793.59;5054822;28;20048;-71
2021/10/19 10:52:15;;;;;;;13.43;9.50;;;;;;;19.90;42.79;100786.22;5085663;28;20055;-71
2021/10/19 10:54:52;;;;;;;12.05;8.50;;;;;;;20.03;42.63;100786.63;5086462;28;20044;-72
2021/10/19 10:57:20;;;;;;;16.25;9.38;;;;;;;20.10;42.18;100789.50;5088114;28;20055;-71
2021/10/19 10:59:53;;;;;;;12.55;8.52;;;;;;;20.12;42.22;100784.81;5087706;28;20414;-71
2021/10/19 11:02:20;;;;;;;11.77;9.13;;;;;;;19.99;42.01;100787.09;5086902;28;20044;-72
2021/10/19 11:04:48;;;;;;;15.05;9.95;;;;;;;20.01;42.11;100791.31;5087828;28;20040;-69
2021/10/19 11:07:30;;;;;;;13.30;8.40;;;;;;;19.94;42.47;100784.91;5085735;28;20040;-68
2021/10/19 11:09:57;;;;;;;12.20;8.23;;;;;;;19.80;42.28;100790.84;5083795;28;20048;-70
2021/10/19 11:12:33;;;;;;;11.55;9.30;;;;;;;19.71;42.83;100794.44;5086518;28;20048;-73